Time;durP1;ratioP1;P1;durP2;ratioP2;P2;SDS_P1;SDS_P2;PMS_P1;PMS_P2;Temp;Humidity;BMP_temperature;BMP_pressure;BME280_temperature;BME280_humidity;BME280_pressure;Samples;Min_cycle;Max_cycle;Signal;HPM_P1;HPM_P2
2022/08/21 00:00:40;;;;;;;2.28;1.70;;;;;;;18.18;60.64;98687.44;4113318;28;20211;-57
2022/08/21 00:02:48;;;;;;;2.50;2.28;;;;;;;18.20;60.84;98690.72;4110890;28;20210;-57
2022/08/21 00:04:51;;;;;;;3.22;2.05;;;;;;;18.22;60.88;98683.78;4091931;28;20266;-57
2022/08/21 00:06:58;;;;;;;3.90;2.20;;;;;;;18.20;60.83;98685.19;4117603;28;20680;-57
2022/08/21 00:09:01;;;;;;;3.58;2.13;;;;;;;18.16;61.04;98689.66;4103808;28;20214;-57
2022/08/21 00:11:07;;;;;;;2.97;1.73;;;;;;;18.07;61.27;98691.44;4117195;28;20226;-57
2022/08/21 00:13:09;;;;;;;2.92;2.40;;;;;;;18.06;61.18;98689.78;4089532;28;20211;-56
2022/08/21 00:15:12;;;;;;;2.88;1.85;;;;;;;18.02;61.09;98683.16;4104075;28;20212;-57
2022/08/21 00:17:14;;;;;;;2.97;2.00;;;;;;;18.02;61.38;98685.94;4120273;28;20826;-57
2022/08/21 00:19:16;;;;;;;3.60;2.35;;;;;;;17.99;61.41;98690.13;4110445;28;20856;-58
2022/08/21 00:21:17;;;;;;;3.42;2.30;;;;;;;17.96;61.45;98678.78;4102745;28;20281;-57
2022/08/21 00:23:19;;;;;;;3.35;2.00;;;;;;;17.93;61.80;98682.97;4103325;28;20380;-58
2022/08/21 00:25:21;;;;;;;2.53;1.90;;;;;;;17.92;61.70;98683.28;4101833;28;20234;-56
2022/08/21 00:27:26;;;;;;;6.35;1.80;;;;;;;17.83;62.11;98680.31;4105130;28;20574;-57
2022/08/21 00:29:28;;;;;;;3.20;2.00;;;;;;;17.74;62.21;98675.72;4098470;28;20207;-57
2022/08/21 00:31:30;;;;;;;5.90;1.65;;;;;;;17.64;62.38;98673.06;4088587;28;20665;-55
2022/08/21 00:33:33;;;;;;;4.15;1.75;;;;;;;17.61;62.33;98670.88;4104461;28;20219;-56
2022/08/21 00:35:37;;;;;;;2.13;1.50;;;;;;;17.52;62.89;98678.16;4102906;28;20226;-56
2022/08/21 00:37:40;;;;;;;3.25;2.08;;;;;;;17.45;63.11;98677.66;4113921;28;20257;-55
2022/08/21 00:39:42;;;;;;;3.75;1.95;;;;;;;17.42;63.14;98678.22;4100102;28;20211;-56
2022/08/21 00:41:44;;;;;;;6.72;2.20;;;;;;;17.37;63.39;98686.56;4083410;28;20203;-56
2022/08/21 00:43:46;;;;;;;4.05;2.20;;;;;;;17.34;63.63;98681.59;4100992;28;20676;-59
2022/08/21 00:45:48;;;;;;;4.68;2.03;;;;;;;17.32;63.49;98678.31;4100931;28;20214;-56
2022/08/21 00:47:51;;;;;;;4.13;2.67;;;;;;;17.29;63.59;98681.63;4104274;28;20276;-57
2022/08/21 00:49:53;;;;;;;2.08;1.88;;;;;;;17.27;63.63;98686.63;4101431;28;20207;-58
2022/08/21 00:51:58;;;;;;;3.58;2.47;;;;;;;17.25;63.71;98688.88;4100831;28;20287;-56
2022/08/21 00:54:01;;;;;;;5.53;2.60;;;;;;;17.20;64.13;98692.47;4113897;28;20218;-56
2022/08/21 00:56:04;;;;;;;6.53;2.30;;;;;;;17.19;63.98;98690.03;4100565;28;20247;-58
2022/08/21 00:58:08;;;;;;;4.82;2.45;;;;;;;17.15;64.32;98686.16;4103101;28;20206;-59
2022/08/21 01:00:21;;;;;;;3.35;2.53;;;;;;;17.10;64.45;98683.44;4098629;28;20302;-58
2022/08/21 01:02:23;;;;;;;2.90;2.05;;;;;;;17.08;64.42;98688.44;4100422;28;20233;-56
2022/08/21 01:04:24;;;;;;;2.83;2.63;;;;;;;17.04;64.39;98677.13;4097685;28;20291;-56
2022/08/21 01:06:26;;;;;;;4.00;2.50;;;;;;;17.05;64.29;98683.50;4112651;28;20274;-54
2022/08/21 01:08:29;;;;;;;3.30;2.22;;;;;;;17.01;64.45;98685.16;4101778;28;20208;-59
2022/08/21 01:10:31;;;;;;;2.75;2.22;;;;;;;16.97;64.53;98681.31;4106697;28;20234;-56
2022/08/21 01:12:34;;;;;;;4.97;2.22;;;;;;;16.94;64.34;98681.91;4101213;28;20235;-56
2022/08/21 01:14:36;;;;;;;3.75;2.35;;;;;;;16.94;64.58;98676.38;4102328;28;20640;-57
2022/08/21 01:16:39;;;;;;;2.67;2.30;;;;;;;16.92;64.79;98679.41;4110044;28;20269;-58
2022/08/21 01:18:41;;;;;;;2.95;2.67;;;;;;;16.86;65.17;98679.75;4093145;28;20246;-56
2022/08/21 01:20:57;;;;;;;4.68;1.88;;;;;;;16.82;65.05;98673.13;4107505;28;20731;-56
2022/08/21 01:23:01;;;;;;;3.33;2.35;;;;;;;16.84;65.03;98670.91;4114073;28;20570;-56
2022/08/21 01:25:07;;;;;;;3.30;2.58;;;;;;;16.83;65.01;98677.53;4098944;28;20770;-55
2022/08/21 01:27:09;;;;;;;4.32;2.40;;;;;;;16.83;64.74;98672.00;4101193;28;20235;-55
2022/08/21 01:29:20;;;;;;;5.72;3.08;;;;;;;16.81;64.96;98665.94;4086407;28;20319;-58
2022/08/21 01:31:23;;;;;;;4.95;2.20;;;;;;;16.77;65.29;98675.13;4103010;28;20214;-56
2022/08/21 01:33:26;;;;;;;3.65;2.55;;;;;;;16.75;65.14;98667.09;4100579;28;20604;-57
2022/08/21 01:35:29;;;;;;;2.50;2.08;;;;;;;16.76;65.18;98677.03;4112619;28;20641;-56
2022/08/21 01:37:30;;;;;;;6.88;2.55;;;;;;;16.78;65.15;98677.59;4102861;28;20266;-58
2022/08/21 01:39:32;;;;;;;2.22;2.03;;;;;;;16.79;65.08;98673.72;4112439;28;20635;-56
2022/08/21 01:41:34;;;;;;;3.95;2.17;;;;;;;16.86;64.93;98673.38;4104112;28;20207;-56
2022/08/21 01:43:36;;;;;;;3.53;2.22;;;;;;;16.83;65.22;98669.25;4103465;28;20254;-58
2022/08/21 01:45:40;;;;;;;2.17;1.95;;;;;;;16.76;65.45;98677.03;4088098;28;20207;-56
2022/08/21 01:47:43;;;;;;;4.65;2.38;;;;;;;16.67;65.69;98681.53;4096477;28;20713;-55
2022/08/21 01:49:45;;;;;;;2.67;2.40;;;;;;;16.66;66.03;98682.63;4100098;28;20215;-58
2022/08/21 01:51:47;;;;;;;2.60;1.95;;;;;;;16.67;65.85;98678.75;4102541;28;20254;-56
2022/08/21 01:53:49;;;;;;;6.03;3.00;;;;;;;16.66;65.94;98668.81;4087813;28;20246;-57
2022/08/21 01:55:50;;;;;;;4.25;1.85;;;;;;;16.67;65.58;98672.38;4105045;28;20219;-56
2022/08/21 01:57:52;;;;;;;4.68;2.35;;;;;;;16.67;65.61;98664.94;4103315;28;20211;-55
2022/08/21 01:59:54;;;;;;;3.38;2.08;;;;;;;16.66;65.72;98668.81;4092810;28;20220;-56
2022/08/21 02:01:56;;;;;;;2.47;2.28;;;;;;;16.62;65.71;98664.97;4104461;28;20671;-57
2022/08/21 02:03:59;;;;;;;2.55;2.35;;;;;;;16.57;65.81;98670.50;4102767;28;20219;-57
2022/08/21 02:06:01;;;;;;;2.70;2.45;;;;;;;16.56;65.90;98673.59;4105050;28;20206;-56
2022/08/21 02:08:03;;;;;;;4.00;2.30;;;;;;;16.53;65.89;98672.22;4111566;28;20203;-56
2022/08/21 02:10:07;;;;;;;3.85;2.13;;;;;;;16.53;66.06;98665.84;4107777;28;20237;-56
2022/08/21 02:12:09;;;;;;;4.63;2.20;;;;;;;16.44;66.49;98665.59;4107021;28;20682;-55
2022/08/21 02:14:14;;;;;;;4.65;2.35;;;;;;;16.33;66.74;98661.22;4120725;28;20679;-59
2022/08/21 02:16:33;;;;;;;3.70;2.42;;;;;;;16.24;66.90;98654.63;4110929;28;20321;-56
2022/08/21 02:18:35;;;;;;;4.65;2.55;;;;;;;16.22;66.85;98656.84;4095659;28;20703;-58
2022/08/21 02:20:40;;;;;;;4.38;2.35;;;;;;;16.25;66.98;98661.00;4103330;28;20258;-56
2022/08/21 02:22:42;;;;;;;3.20;2.63;;;;;;;16.23;67.11;98658.50;4123210;28;20198;-57
2022/08/21 02:24:44;;;;;;;2.90;2.45;;;;;;;16.22;67.28;98656.84;4098486;28;20298;-55
2022/08/21 02:26:55;;;;;;;6.78;2.20;;;;;;;16.15;67.36;98650.81;4107403;28;20770;-57
2022/08/21 02:28:56;;;;;;;2.15;1.95;;;;;;;16.11;67.37;98649.75;4106272;28;20273;-57
2022/08/21 02:30:58;;;;;;;6.40;2.17;;;;;;;16.08;67.44;98658.56;4104562;28;20210;-58
2022/08/21 02:33:00;;;;;;;5.57;1.83;;;;;;;16.03;67.68;98658.56;4101502;28;20271;-55
2022/08/21 02:35:02;;;;;;;2.97;2.55;;;;;;;15.99;67.69;98656.66;4104841;28;20241;-56
2022/08/21 02:37:04;;;;;;;3.92;3.05;;;;;;;15.98;67.98;98655.03;4104390;28;20235;-55
2022/08/21 02:39:06;;;;;;;2.65;1.70;;;;;;;15.94;68.13;98654.75;4106737;28;20290;-56
2022/08/21 02:41:13;;;;;;;3.05;2.00;;;;;;;15.89;68.26;98657.53;4111199;28;20214;-58
2022/08/21 02:43:15;;;;;;;4.50;2.85;;;;;;;15.84;68.46;98663.06;4118980;28;20250;-57
2022/08/21 02:45:17;;;;;;;3.53;2.15;;;;;;;15.83;68.41;98663.34;4102600;28;20243;-55
2022/08/21 02:47:19;;;;;;;3.85;2.05;;;;;;;15.81;68.25;98665.53;4111010;28;20352;-56
2022/08/21 02:49:21;;;;;;;2.78;2.47;;;;;;;15.86;68.35;98660.03;4106299;28;20237;-55
2022/08/21 02:51:22;;;;;;;3.88;2.60;;;;;;;15.88;68.47;98661.41;4102966;28;20772;-56
2022/08/21 02:53:25;;;;;;;2.75;2.03;;;;;;;15.87;68.23;98662.50;4105999;28;20793;-56
2022/08/21 02:55:29;;;;;;;3.40;2.42;;;;;;;15.90;68.27;98656.41;4102722;28;20269;-56
2022/08/21 02:57:32;;;;;;;4.05;2.03;;;;;;;15.93;68.39;98658.63;4105259;28;20660;-56
2022/08/21 02:59:33;;;;;;;3.63;2.47;;;;;;;15.96;68.52;98658.06;4108975;28;20242;-55
2022/08/21 03:01:36;;;;;;;3.97;3.58;;;;;;;15.83;68.44;98657.84;4108098;28;20724;-56
2022/08/21 03:03:40;;;;;;;3.08;2.40;;;;;;;15.77;68.58;98665.28;4100714;28;20290;-55
2022/08/21 03:05:43;;;;;;;3.63;2.53;;;;;;;15.69;68.86;98657.56;4099669;28;20207;-56
2022/08/21 03:07:46;;;;;;;3.15;2.47;;;;;;;15.62;69.36;98657.03;4103642;28;20267;-56
2022/08/21 03:09:47;;;;;;;3.00;2.38;;;;;;;15.61;69.12;98655.38;4099114;28;20901;-56
2022/08/21 03:11:57;;;;;;;3.08;2.50;;;;;;;15.56;69.54;98654.59;4101137;28;20218;-55
2022/08/21 03:13:59;;;;;;;3.42;2.30;;;;;;;15.51;69.77;98649.88;4089967;28;20211;-55
2022/08/21 03:16:00;;;;;;;3.83;2.53;;;;;;;15.49;69.67;98652.09;4089991;28;20621;-55
2022/08/21 03:18:06;;;;;;;2.80;2.58;;;;;;;15.48;69.62;98658.72;4114945;28;20225;-56
2022/08/21 03:20:09;;;;;;;4.00;2.85;;;;;;;15.45;69.97;98650.19;4100308;28;20230;-56
2022/08/21 03:22:10;;;;;;;4.35;2.60;;;;;;;15.36;70.27;98658.19;4101634;28;20322;-56
2022/08/21 03:24:12;;;;;;;2.60;2.40;;;;;;;15.33;70.18;98658.75;4099665;28;20252;-56
2022/08/21 03:26:14;;;;;;;4.13;2.78;;;;;;;15.29;70.28;98657.59;4110838;28;20330;-55
2022/08/21 03:28:19;;;;;;;2.63;2.42;;;;;;;15.31;70.07;98654.56;4112249;28;20297;-56
2022/08/21 03:30:22;;;;;;;3.92;3.05;;;;;;;15.32;70.03;98657.09;4101315;28;20720;-56
2022/08/21 03:32:23;;;;;;;3.22;2.88;;;;;;;15.32;70.02;98646.06;4104368;28;20293;-55
2022/08/21 03:34:25;;;;;;;4.07;2.65;;;;;;;15.28;70.09;98646.84;4114679;28;20341;-56
2022/08/21 03:36:27;;;;;;;3.95;2.75;;;;;;;15.24;70.42;98654.84;4099338;28;20727;-55
2022/08/21 03:38:30;;;;;;;3.17;2.85;;;;;;;15.21;70.22;98655.41;4104166;28;20360;-56
2022/08/21 03:40:32;;;;;;;2.58;2.38;;;;;;;15.17;70.43;98654.28;4105924;28;20222;-56
2022/08/21 03:42:34;;;;;;;4.50;3.03;;;;;;;15.03;70.98;98650.44;4100551;28;20241;-56
2022/08/21 03:44:36;;;;;;;3.38;3.15;;;;;;;14.98;71.44;98653.22;4091121;28;20215;-55
2022/08/21 03:46:38;;;;;;;3.63;2.95;;;;;;;15.03;71.24;98652.38;4101421;28;20314;-55
2022/08/21 03:48:40;;;;;;;3.17;2.88;;;;;;;15.03;70.94;98650.44;4107719;28;20382;-55
2022/08/21 03:50:44;;;;;;;3.15;2.65;;;;;;;15.05;71.12;98656.53;4117319;28;20210;-56
2022/08/21 03:52:46;;;;;;;2.47;2.20;;;;;;;14.66;72.74;98654.53;4114841;28;20625;-56
2022/08/21 03:54:48;;;;;;;4.07;2.47;;;;;;;14.71;72.35;98649.84;4102991;28;20665;-55
2022/08/21 03:56:49;;;;;;;2.90;2.63;;;;;;;14.90;71.69;98653.72;4097098;28;20247;-56
2022/08/21 03:58:51;;;;;;;3.65;3.00;;;;;;;14.91;71.54;98652.63;4103066;28;20218;-56
2022/08/21 04:00:56;;;;;;;3.08;2.55;;;;;;;14.96;71.44;98647.13;4100078;28;20243;-56
2022/08/21 04:02:58;;;;;;;2.90;2.42;;;;;;;14.96;71.52;98646.31;4116341;28;20246;-56
2022/08/21 04:05:00;;;;;;;3.15;2.72;;;;;;;14.91;71.47;98644.34;4102100;28;20211;-55
2022/08/21 04:07:02;;;;;;;3.97;2.80;;;;;;;14.89;71.21;98645.78;4102683;28;20222;-56
2022/08/21 04:09:04;;;;;;;4.15;3.00;;;;;;;14.85;71.59;98645.50;4103534;28;20207;-56
2022/08/21 04:11:06;;;;;;;3.13;2.70;;;;;;;14.88;71.43;98655.94;4102112;28;20306;-56
2022/08/21 04:13:08;;;;;;;2.42;2.22;;;;;;;14.88;71.51;98650.44;4106726;28;20230;-56
2022/08/21 04:15:09;;;;;;;3.10;2.38;;;;;;;14.75;72.18;98650.97;4108518;28;20580;-56
2022/08/21 04:17:11;;;;;;;2.83;2.47;;;;;;;14.78;72.22;98655.94;4102911;28;20238;-56
2022/08/21 04:19:13;;;;;;;4.65;2.80;;;;;;;14.83;72.18;98661.44;4092399;28;20727;-56
2022/08/21 04:21:14;;;;;;;2.97;2.60;;;;;;;14.82;71.89;98657.03;4101871;28;20708;-56
2022/08/21 04:23:19;;;;;;;2.70;2.45;;;;;;;14.86;71.45;98668.34;4103137;28;20703;-56
2022/08/21 04:25:28;;;;;;;3.17;2.35;;;;;;;14.89;71.26;98660.34;4095234;28;20767;-56
2022/08/21 04:27:30;;;;;;;3.53;2.55;;;;;;;14.91;70.98;98671.09;4103988;28;20230;-56
2022/08/21 04:29:31;;;;;;;2.47;2.28;;;;;;;14.91;71.14;98671.91;4100816;28;20211;-56
2022/08/21 04:31:38;;;;;;;2.65;2.45;;;;;;;14.88;70.97;98677.16;4104493;28;20214;-55
2022/08/21 04:33:40;;;;;;;3.30;2.47;;;;;;;14.87;71.19;98679.09;4098969;28;20227;-55
2022/08/21 04:35:42;;;;;;;2.58;2.38;;;;;;;14.90;70.92;98674.97;4101895;28;20297;-55
2022/08/21 04:37:44;;;;;;;2.67;2.42;;;;;;;14.93;70.73;98686.28;4099412;28;20358;-55
2022/08/21 04:39:45;;;;;;;4.22;2.83;;;;;;;14.91;70.68;98693.16;4102093;28;20219;-55
2022/08/21 04:41:53;;;;;;;6.50;2.58;;;;;;;14.91;70.71;98693.97;4099796;28;20746;-55
2022/08/21 04:43:55;;;;;;;2.85;2.58;;;;;;;14.88;70.96;98691.78;4114729;28;20241;-56
2022/08/21 04:45:57;;;;;;;4.03;2.78;;;;;;;14.85;71.27;98695.09;4100441;28;20285;-55
2022/08/21 04:48:00;;;;;;;8.38;2.55;;;;;;;14.78;71.39;98688.16;4101372;28;20794;-56
2022/08/21 04:50:02;;;;;;;3.85;2.45;;;;;;;14.75;71.33;98695.06;4102358;28;20261;-55
2022/08/21 04:52:07;;;;;;;2.92;2.60;;;;;;;14.73;71.33;98689.00;4099786;28;20655;-56
2022/08/21 04:54:11;;;;;;;3.38;2.58;;;;;;;14.73;71.59;98689.00;4101663;28;20310;-55
2022/08/21 04:56:20;;;;;;;3.08;2.53;;;;;;;14.72;71.31;98684.59;4100743;28;20663;-56
2022/08/21 04:58:24;;;;;;;6.43;3.08;;;;;;;14.73;71.28;98697.25;4111953;28;20293;-55
2022/08/21 05:00:26;;;;;;;5.35;3.55;;;;;;;14.74;71.47;98687.88;4102134;28;20238;-56
2022/08/21 05:02:28;;;;;;;3.92;2.97;;;;;;;14.77;71.57;98698.34;4101339;28;20740;-55
2022/08/21 05:04:33;;;;;;;4.38;2.42;;;;;;;14.74;71.70;98701.66;4108680;28;20213;-54
2022/08/21 05:06:36;;;;;;;3.53;3.03;;;;;;;14.71;71.67;98693.13;4118274;28;20261;-55
2022/08/21 05:08:39;;;;;;;4.60;3.00;;;;;;;14.67;72.16;98698.34;4114590;28;20209;-55
2022/08/21 05:10:44;;;;;;;2.80;2.60;;;;;;;14.66;71.82;98696.69;4118981;28;20226;-55
2022/08/21 05:12:45;;;;;;;3.35;2.78;;;;;;;14.67;72.23;98701.09;4106631;28;20262;-55
2022/08/21 05:14:47;;;;;;;3.00;2.70;;;;;;;14.58;72.52;98699.16;4102743;28;20214;-55
2022/08/21 05:16:49;;;;;;;3.33;2.50;;;;;;;14.55;72.61;98695.00;4101750;28;20234;-55
2022/08/21 05:18:51;;;;;;;4.75;2.20;;;;;;;14.55;72.56;98695.00;4102243;28;20241;-56
2022/08/21 05:20:53;;;;;;;4.65;2.72;;;;;;;14.58;72.44;98699.16;4102937;28;20215;-56
2022/08/21 05:22:55;;;;;;;3.28;2.97;;;;;;;14.61;72.38;98699.44;4122085;28;20730;-57
2022/08/21 05:24:57;;;;;;;3.70;2.83;;;;;;;14.72;72.45;98701.13;4118434;28;20257;-56
2022/08/21 05:26:58;;;;;;;3.15;2.80;;;;;;;14.78;72.62;98699.19;4106300;28;20230;-55
2022/08/21 05:29:04;;;;;;;3.28;2.70;;;;;;;14.89;72.32;98698.94;4103215;28;20295;-56
2022/08/21 05:31:12;;;;;;;6.38;3.50;;;;;;;14.89;72.24;98704.44;4103166;28;20263;-55
2022/08/21 05:33:14;;;;;;;3.45;3.10;;;;;;;14.94;71.92;98698.94;4085978;28;20208;-56
2022/08/21 05:35:15;;;;;;;7.90;4.82;;;;;;;15.03;71.81;98702.81;4114895;28;20210;-56
2022/08/21 05:37:17;;;;;;;5.97;2.88;;;;;;;15.15;72.18;98703.38;4104322;28;20456;-56
2022/08/21 05:39:19;;;;;;;2.97;2.78;;;;;;;15.37;73.13;98703.94;4104735;28;20238;-56
2022/08/21 05:41:20;;;;;;;3.72;2.95;;;;;;;15.55;72.31;98711.69;4105031;28;20230;-57
2022/08/21 05:43:22;;;;;;;3.53;3.22;;;;;;;15.59;72.26;98699.00;4103860;28;20285;-56
2022/08/21 05:45:29;;;;;;;3.38;3.08;;;;;;;15.61;72.09;98716.09;4109654;28;20221;-56
2022/08/21 05:47:44;;;;;;;3.55;3.25;;;;;;;15.58;72.07;98715.81;4107200;28;20720;-56
2022/08/21 05:49:45;;;;;;;5.93;2.92;;;;;;;15.76;72.42;98705.03;4095850;28;20241;-56
2022/08/21 05:51:50;;;;;;;4.30;3.88;;;;;;;15.71;71.52;98710.53;4099814;28;20333;-55
2022/08/21 05:53:52;;;;;;;3.28;3.00;;;;;;;15.58;72.11;98705.63;4108958;28;20195;-53
2022/08/21 05:55:54;;;;;;;4.40;3.53;;;;;;;15.56;72.42;98705.03;4088578;28;20265;-52
2022/08/21 05:57:55;;;;;;;4.38;2.67;;;;;;;15.80;72.13;98714.41;4105020;28;20214;-53
2022/08/21 05:59:57;;;;;;;3.97;3.58;;;;;;;16.08;71.69;98710.19;4102210;28;20696;-53
2022/08/21 06:01:59;;;;;;;4.00;3.53;;;;;;;16.29;71.09;98711.78;4109640;28;20661;-53
2022/08/21 06:04:06;;;;;;;6.18;3.50;;;;;;;16.50;70.80;98714.19;4107920;28;20318;-53
2022/08/21 06:06:09;;;;;;;4.72;3.60;;;;;;;16.72;70.15;98711.91;4108410;28;20207;-52
2022/08/21 06:08:11;;;;;;;3.42;3.13;;;;;;;16.93;69.70;98707.91;4117162;28;20623;-53
2022/08/21 06:10:13;;;;;;;5.53;2.95;;;;;;;17.09;69.12;98723.28;4110033;28;20211;-53
2022/08/21 06:12:17;;;;;;;5.28;2.97;;;;;;;17.20;68.81;98717.38;4113275;28;20782;-52
2022/08/21 06:14:18;;;;;;;2.78;2.45;;;;;;;17.28;68.47;98708.47;4107852;28;20226;-52
2022/08/21 06:16:21;;;;;;;4.72;3.05;;;;;;;17.42;68.04;98716.97;4120844;28;20226;-52
2022/08/21 06:18:23;;;;;;;3.80;2.47;;;;;;;17.59;67.89;98707.13;4108339;28;20207;-53
2022/08/21 06:20:25;;;;;;;2.45;2.25;;;;;;;17.69;67.14;98711.75;4108113;28;20203;-52
2022/08/21 06:22:28;;;;;;;4.43;2.90;;;;;;;17.74;67.47;98711.72;4106596;28;20255;-52
2022/08/21 06:24:30;;;;;;;9.98;3.00;;;;;;;17.87;67.07;98708.25;4104913;28;20266;-53
2022/08/21 06:26:33;;;;;;;2.55;2.33;;;;;;;17.89;66.75;98706.84;4096336;28;20362;-52
2022/08/21 06:28:36;;;;;;;3.97;2.20;;;;;;;18.04;66.04;98703.91;4081428;28;20709;-52
2022/08/21 06:30:39;;;;;;;5.05;3.22;;;;;;;18.19;66.32;98706.50;4108687;28;20214;-52
2022/08/21 06:32:41;;;;;;;5.68;3.00;;;;;;;18.29;65.57;98697.25;4112907;28;20230;-53
2022/08/21 06:34:43;;;;;;;3.35;2.42;;;;;;;18.04;65.81;98697.56;4124544;28;20343;-52
2022/08/21 06:36:44;;;;;;;3.47;3.13;;;;;;;18.14;66.30;98697.44;4118483;28;20256;-52
2022/08/21 06:38:47;;;;;;;4.35;3.00;;;;;;;18.37;65.85;98702.16;4123045;28;20210;-52
2022/08/21 06:40:52;;;;;;;3.05;2.75;;;;;;;18.71;65.44;98692.59;4132495;28;20722;-53
2022/08/21 06:42:53;;;;;;;3.35;2.83;;;;;;;18.95;63.75;98690.59;4120942;28;20206;-52
2022/08/21 06:44:57;;;;;;;3.10;2.75;;;;;;;19.23;63.20;98694.34;4129092;28;20300;-52
2022/08/21 06:46:58;;;;;;;2.83;2.58;;;;;;;19.35;62.41;98689.16;4118716;28;20234;-53
2022/08/21 06:49:00;;;;;;;4.03;2.60;;;;;;;19.48;62.41;98685.59;4124344;28;20264;-53
2022/08/21 06:51:02;;;;;;;3.80;2.63;;;;;;;19.70;61.69;98688.53;4119778;28;20218;-53
2022/08/21 06:53:10;;;;;;;3.05;2.45;;;;;;;19.33;62.14;98688.63;4122590;28;20207;-54
2022/08/21 06:55:12;;;;;;;3.05;2.50;;;;;;;19.22;63.00;98687.97;4109148;28;20733;-53
2022/08/21 06:57:22;;;;;;;2.92;2.60;;;;;;;19.54;61.99;98689.94;4134470;28;20774;-52
2022/08/21 06:59:24;;;;;;;5.53;2.65;;;;;;;19.89;61.76;98686.53;4139256;28;20275;-52
2022/08/21 07:01:26;;;;;;;2.20;1.92;;;;;;;20.30;60.34;98687.44;4126586;28;20206;-52
2022/08/21 07:03:34;;;;;;;4.32;2.50;;;;;;;20.45;59.68;98690.72;4136759;28;20267;-52
2022/08/21 07:05:35;;;;;;;3.33;3.03;;;;;;;20.20;58.77;98682.09;4121375;28;21093;-52
2022/08/21 07:07:37;;;;;;;3.95;2.83;;;;;;;20.89;58.78;98688.13;4119961;28;20233;-52
2022/08/21 07:09:39;;;;;;;3.53;2.60;;;;;;;21.04;57.44;98686.97;4122668;28;20237;-52
2022/08/21 07:11:41;;;;;;;4.20;2.67;;;;;;;21.38;56.80;98684.47;4121266;28;20285;-52
2022/08/21 07:13:48;;;;;;;4.43;2.20;;;;;;;21.42;56.51;98688.25;4121975;28;20205;-52
2022/08/21 07:15:50;;;;;;;4.43;2.50;;;;;;;21.64;55.68;98693.84;4134713;28;20206;-52
2022/08/21 07:17:52;;;;;;;4.90;2.17;;;;;;;21.94;55.53;98690.28;4125926;28;20769;-52
2022/08/21 07:19:54;;;;;;;4.05;2.97;;;;;;;22.11;54.88;98691.19;4137181;28;20543;-52
2022/08/21 07:21:58;;;;;;;3.63;2.35;;;;;;;22.01;54.57;98691.50;4135363;28;20221;-52
2022/08/21 07:24:00;;;;;;;3.42;2.22;;;;;;;22.35;54.53;98688.03;4121236;28;20280;-52
2022/08/21 07:26:02;;;;;;;3.13;2.80;;;;;;;22.20;54.00;98685.69;4136615;28;20205;-52
2022/08/21 07:28:04;;;;;;;4.15;2.03;;;;;;;22.71;53.67;98694.28;4125470;28;20224;-51
2022/08/21 07:30:07;;;;;;;5.05;2.45;;;;;;;22.95;53.15;98686.25;4105843;28;20298;-52
2022/08/21 07:32:08;;;;;;;3.28;2.17;;;;;;;22.99;52.94;98684.47;4121256;28;20818;-52
2022/08/21 07:34:10;;;;;;;5.07;2.67;;;;;;;22.65;51.88;98685.22;4120617;28;20210;-52
2022/08/21 07:36:12;;;;;;;4.80;2.42;;;;;;;23.05;52.67;98688.75;4121075;28;20233;-52
2022/08/21 07:38:14;;;;;;;6.47;2.85;;;;;;;23.21;51.81;98687.16;4114372;28;20394;-53
2022/08/21 07:40:17;;;;;;;4.20;2.65;;;;;;;23.20;51.13;98691.94;4105372;28;20220;-54
2022/08/21 07:42:19;;;;;;;5.03;2.63;;;;;;;22.79;52.83;98687.88;4124776;28;20264;-52
2022/08/21 07:44:20;;;;;;;3.58;1.95;;;;;;;23.27;51.43;98688.63;4138334;28;20224;-52
2022/08/21 07:46:22;;;;;;;2.92;2.15;;;;;;;23.65;51.75;98692.41;4121874;28;20237;-53
2022/08/21 07:48:24;;;;;;;5.28;2.30;;;;;;;23.96;51.45;98688.25;4133435;28;20209;-53
2022/08/21 07:50:26;;;;;;;2.92;2.20;;;;;;;24.38;50.29;98690.94;4125379;28;20260;-52
2022/08/21 07:52:27;;;;;;;3.25;2.05;;;;;;;24.53;49.87;98693.16;4149465;28;20803;-53
2022/08/21 07:54:32;;;;;;;3.63;2.30;;;;;;;24.76;50.08;98686.16;4122636;28;20293;-53
2022/08/21 07:56:35;;;;;;;4.55;2.10;;;;;;;23.88;49.47;98679.88;4121014;28;20233;-53
2022/08/21 07:58:37;;;;;;;4.93;2.63;;;;;;;24.12;50.66;98686.59;4121683;28;20201;-53
2022/08/21 08:00:40;;;;;;;5.88;2.67;;;;;;;23.97;50.44;98686.31;4119954;28;20691;-52
2022/08/21 08:02:45;;;;;;;6.32;2.88;;;;;;;24.12;49.82;98681.81;4129235;28;20204;-52
2022/08/21 08:04:46;;;;;;;3.78;2.63;;;;;;;24.45;49.98;98674.44;4132523;28;20247;-52
2022/08/21 08:06:51;;;;;;;4.35;2.38;;;;;;;24.58;48.49;98681.81;4122452;28;20785;-53
2022/08/21 08:08:53;;;;;;;5.35;2.78;;;;;;;24.48;47.29;98678.53;4123028;28;20207;-52
2022/08/21 08:10:56;;;;;;;5.55;2.75;;;;;;;24.16;47.97;98670.75;4123278;28;20205;-53
2022/08/21 08:12:58;;;;;;;6.72;3.47;;;;;;;24.34;48.05;98672.34;4122773;28;20918;-53
2022/08/21 08:15:01;;;;;;;4.45;2.33;;;;;;;24.05;47.59;98670.31;4117722;28;20862;-52
2022/08/21 08:17:03;;;;;;;4.22;2.38;;;;;;;24.92;47.20;98666.81;4136385;28;20224;-53
2022/08/21 08:19:04;;;;;;;4.35;2.42;;;;;;;25.45;47.02;98655.72;4119249;28;20261;-52
2022/08/21 08:21:06;;;;;;;4.88;2.25;;;;;;;25.83;46.63;98659.94;4121374;28;20245;-52
2022/08/21 08:23:12;;;;;;;6.57;3.38;;;;;;;25.11;45.75;98653.97;4122014;28;20264;-52
2022/08/21 08:25:16;;;;;;;8.65;2.92;;;;;;;25.11;47.21;98648.34;4118485;28;20240;-52
2022/08/21 08:27:19;;;;;;;4.25;2.25;;;;;;;25.21;46.04;98650.75;4120084;28;20348;-53
2022/08/21 08:29:22;;;;;;;4.55;2.22;;;;;;;25.44;45.45;98657.69;4105310;28;20703;-52
2022/08/21 08:31:23;;;;;;;3.95;2.17;;;;;;;25.19;45.73;98650.25;4131053;28;20194;-53
2022/08/21 08:33:25;;;;;;;4.85;2.38;;;;;;;25.07;44.73;98647.38;4119175;28;20213;-52
2022/08/21 08:35:28;;;;;;;3.80;1.77;;;;;;;25.63;45.44;98643.97;4117831;28;20578;-53
2022/08/21 08:37:33;;;;;;;4.82;2.88;;;;;;;25.37;44.31;98646.19;4122008;28;20236;-53
2022/08/21 08:39:35;;;;;;;6.38;2.33;;;;;;;25.05;44.83;98644.13;4132580;28;20690;-53
2022/08/21 08:41:40;;;;;;;5.10;2.13;;;;;;;24.90;45.36;98639.13;4133316;28;20241;-52
2022/08/21 08:43:52;;;;;;;5.95;2.08;;;;;;;25.33;44.76;98644.44;4119884;28;20785;-52
2022/08/21 08:45:56;;;;;;;5.63;2.60;;;;;;;25.05;45.47;98632.91;4120872;28;20737;-52
2022/08/21 08:48:03;;;;;;;2.00;1.80;;;;;;;25.91;44.70;98636.63;4136222;28;20213;-53
2022/08/21 08:50:18;;;;;;;5.28;1.58;;;;;;;26.64;43.84;98635.53;4119759;28;20338;-52
2022/08/21 08:52:28;;;;;;;5.15;2.45;;;;;;;26.42;43.23;98638.81;4133114;28;20227;-53
2022/08/21 08:54:44;;;;;;;7.63;1.88;;;;;;;26.75;43.55;98642.34;4128096;28;20207;-52
2022/08/21 08:56:47;;;;;;;3.75;1.50;;;;;;;27.24;43.10;98638.28;4118357;28;20224;-52
2022/08/21 08:58:50;;;;;;;4.55;2.10;;;;;;;27.22;40.99;98635.03;4108852;28;20209;-53
2022/08/21 09:00:54;;;;;;;3.35;1.52;;;;;;;26.83;40.40;98627.34;4120437;28;20687;-53
2022/08/21 09:02:58;;;;;;;5.15;1.80;;;;;;;26.04;42.43;98635.47;4120953;28;20233;-53
2022/08/21 09:05:00;;;;;;;3.85;2.20;;;;;;;26.35;42.16;98638.56;4117558;28;20240;-52
2022/08/21 09:07:38;;;;;;;4.47;1.90;;;;;;;26.99;41.31;98635.88;4119219;28;20236;-52
2022/08/21 09:10:04;;;;;;;4.18;1.98;;;;;;;26.23;41.64;98641.34;4118394;28;20792;-52
2022/08/21 09:12:17;;;;;;;5.30;1.92;;;;;;;25.29;42.85;98643.47;4121182;28;20220;-53
2022/08/21 09:14:47;;;;;;;3.47;1.70;;;;;;;24.61;43.52;98649.53;4130145;28;20707;-52
2022/08/21 09:16:54;;;;;;;6.78;2.28;;;;;;;24.57;43.71;98649.38;4111377;28;20262;-58
2022/08/21 09:19:28;;;;;;;3.38;1.70;;;;;;;24.85;43.91;98633.72;4149445;28;20245;-56
2022/08/21 09:21:52;;;;;;;5.22;1.42;;;;;;;25.37;44.00;98645.38;4114705;28;20233;-55
2022/08/21 09:24:01;;;;;;;3.97;1.75;;;;;;;25.82;43.12;98647.09;4114123;28;20214;-54
2022/08/21 09:26:18;;;;;;;4.93;1.83;;;;;;;26.39;43.21;98636.69;4115812;28;20265;-53
2022/08/21 09:28:20;;;;;;;5.65;1.83;;;;;;;26.94;41.72;98639.75;4116358;28;20303;-55
2022/08/21 09:30:31;;;;;;;7.68;1.90;;;;;;;27.28;40.29;98633.59;4134730;28;20212;-54
2022/08/21 09:32:36;;;;;;;4.15;1.23;;;;;;;27.34;41.07;98631.34;4110610;28;20300;-54
2022/08/21 09:34:38;;;;;;;5.50;1.92;;;;;;;27.94;40.74;98633.91;4119353;28;20304;-54
2022/08/21 09:36:46;;;;;;;6.35;1.85;;;;;;;28.42;40.43;98634.44;4117255;28;20252;-55
2022/08/21 09:38:53;;;;;;;5.63;1.60;;;;;;;28.59;39.13;98634.06;4115971;28;20737;-54
2022/08/21 09:41:00;;;;;;;4.63;1.60;;;;;;;28.37;39.13;98625.44;4117459;28;20541;-54
2022/08/21 09:43:24;;;;;;;4.63;1.65;;;;;;;28.53;38.84;98624.25;4122099;28;20213;-54